createdAt,value
2023-04-29T00:00:32.495Z,6.30
2023-04-29T00:02:59.534Z,7.50
2023-04-29T00:05:27.071Z,5.20
2023-04-29T00:07:54.019Z,7.40
2023-04-29T00:10:20.867Z,8.90
2023-04-29T00:12:47.650Z,8.10
2023-04-29T00:15:14.549Z,5.80
2023-04-29T00:17:41.538Z,6.90
2023-04-29T00:20:09.364Z,7.30
2023-04-29T00:22:36.238Z,8.70
2023-04-29T00:25:04.410Z,6.60
2023-04-29T00:27:31.228Z,7.60
2023-04-29T00:29:58.371Z,6.50
2023-04-29T00:32:25.472Z,7.60
2023-04-29T00:34:52.410Z,8.20
2023-04-29T00:37:19.206Z,7.80
2023-04-29T00:39:46.154Z,6.10
2023-04-29T00:42:12.927Z,7.90
2023-04-29T00:44:39.724Z,7.80
2023-04-29T00:47:11.540Z,7.10
2023-04-29T00:49:42.252Z,7.80
2023-04-29T00:54:36.364Z,7.40
2023-04-29T00:57:04.378Z,10.80
2023-04-29T00:59:32.580Z,8.70
2023-04-29T01:02:04.236Z,8.10
2023-04-29T01:04:31.674Z,7.20
2023-04-29T01:07:04.711Z,7.70
2023-04-29T01:09:38.193Z,7.80
2023-04-29T01:12:13.765Z,8.10
2023-04-29T01:14:40.549Z,7.20
2023-04-29T01:17:11.091Z,7.10
2023-04-29T01:22:11.847Z,6.60
2023-04-29T01:24:39.610Z,7.40
2023-04-29T01:27:36.047Z,7.50
2023-04-29T01:30:42.631Z,6.60
2023-04-29T01:33:17.802Z,8.30
2023-04-29T01:36:05.514Z,6.20
2023-04-29T01:38:32.450Z,7.50
2023-04-29T01:41:23.875Z,6.60
2023-04-29T01:43:53.911Z,7.20
2023-04-29T01:46:23.718Z,9.00
2023-04-29T01:48:55.035Z,5.30
2023-04-29T01:51:22.118Z,8.80
2023-04-29T01:53:49.349Z,7.50
2023-04-29T01:56:18.351Z,9.70
2023-04-29T01:58:57.308Z,7.20
2023-04-29T02:01:26.962Z,8.40
2023-04-29T02:03:54.402Z,10.00
2023-04-29T02:06:21.576Z,8.40
2023-04-29T02:08:52.615Z,8.30
2023-04-29T02:11:21.200Z,5.70
2023-04-29T02:13:48.208Z,6.80
2023-04-29T02:16:16.199Z,8.60
2023-04-29T02:19:03.462Z,8.50
2023-04-29T02:21:31.888Z,9.30
2023-04-29T02:24:00.035Z,7.00
2023-04-29T02:26:26.949Z,6.90
2023-04-29T02:28:57.385Z,7.40
2023-04-29T02:31:24.335Z,7.90
2023-04-29T02:33:51.466Z,8.00
2023-04-29T02:36:18.516Z,8.10
2023-04-29T02:38:45.298Z,8.80
2023-04-29T02:41:19.282Z,6.90
2023-04-29T02:43:49.324Z,8.30
2023-04-29T02:46:19.367Z,7.40
2023-04-29T02:48:46.315Z,7.10
2023-04-29T02:51:13.599Z,7.30
2023-04-29T02:53:40.614Z,6.60
2023-04-29T02:56:07.828Z,9.20
2023-04-29T02:58:34.745Z,8.10
2023-04-29T03:01:01.653Z,8.10
2023-04-29T03:03:28.772Z,7.00
2023-04-29T03:05:56.126Z,7.50
2023-04-29T03:08:22.904Z,9.30
2023-04-29T03:10:49.966Z,11.40
2023-04-29T03:13:16.921Z,6.40
2023-04-29T03:15:44.582Z,10.30
2023-04-29T03:18:11.532Z,8.40
2023-04-29T03:20:38.498Z,10.40
2023-04-29T03:23:05.509Z,8.10
2023-04-29T03:25:32.482Z,8.40
2023-04-29T03:27:59.268Z,8.10
2023-04-29T03:30:26.632Z,10.00
2023-04-29T03:32:55.642Z,9.20
2023-04-29T03:35:22.666Z,6.90
2023-04-29T03:38:08.424Z,7.50
2023-04-29T03:40:36.212Z,9.50
2023-04-29T03:43:03.824Z,10.50
2023-04-29T03:45:31.168Z,8.50
2023-04-29T03:47:58.290Z,7.30
2023-04-29T03:50:26.193Z,9.40
2023-04-29T03:52:53.121Z,9.10
2023-04-29T03:55:20.125Z,8.90
2023-04-29T03:57:47.231Z,13.00
2023-04-29T04:00:14.567Z,11.20
2023-04-29T04:02:45.444Z,12.90
2023-04-29T04:05:13.265Z,11.10
2023-04-29T04:07:42.256Z,12.70
2023-04-29T04:10:28.546Z,10.30
2023-04-29T04:12:56.601Z,10.50
2023-04-29T04:15:23.747Z,7.30
2023-04-29T04:17:50.741Z,9.20
2023-04-29T04:20:18.111Z,8.10
2023-04-29T04:22:45.444Z,7.60
2023-04-29T04:25:22.430Z,10.00
2023-04-29T04:27:49.667Z,8.20
2023-04-29T04:30:25.883Z,7.60
2023-04-29T04:32:52.901Z,7.80
2023-04-29T04:35:19.789Z,6.10
2023-04-29T04:37:46.984Z,5.70
2023-04-29T04:40:14.092Z,9.80
2023-04-29T04:43:00.922Z,5.60
2023-04-29T04:45:31.450Z,7.10
2023-04-29T04:47:59.017Z,7.30
2023-04-29T04:50:31.221Z,5.80
2023-04-29T04:52:58.130Z,7.70
2023-04-29T04:55:47.745Z,6.70
2023-04-29T04:58:14.584Z,7.10
2023-04-29T05:00:45.251Z,6.40
2023-04-29T05:03:12.321Z,9.10
2023-04-29T05:05:39.454Z,6.30
2023-04-29T05:08:06.574Z,8.70
2023-04-29T05:10:37.956Z,9.40
2023-04-29T05:13:05.787Z,6.20
2023-04-29T05:15:33.746Z,7.60
2023-04-29T05:18:01.580Z,7.20
2023-04-29T05:20:28.497Z,5.40
2023-04-29T05:22:55.508Z,6.10
2023-04-29T05:25:22.909Z,5.30
2023-04-29T05:27:49.853Z,7.80
2023-04-29T05:30:19.272Z,7.50
2023-04-29T05:32:46.974Z,4.80
2023-04-29T05:35:15.802Z,5.70
2023-04-29T05:37:44.449Z,6.00
2023-04-29T05:40:27.349Z,6.40
2023-04-29T05:43:00.245Z,7.20
2023-04-29T05:45:27.562Z,7.80
2023-04-29T05:47:54.514Z,5.20
2023-04-29T05:50:22.500Z,6.10
2023-04-29T05:52:49.904Z,7.50
2023-04-29T05:55:16.968Z,6.20
2023-04-29T05:57:44.219Z,6.60
2023-04-29T06:00:11.515Z,7.20
2023-04-29T06:02:54.800Z,7.10
2023-04-29T06:05:25.290Z,6.90
2023-04-29T06:08:18.863Z,11.60
2023-04-29T06:11:03.422Z,9.80
2023-04-29T06:13:31.104Z,11.60
2023-04-29T06:15:57.885Z,7.10
2023-04-29T06:18:24.992Z,9.50
2023-04-29T06:20:51.914Z,12.60
2023-04-29T06:23:18.954Z,15.90
2023-04-29T06:25:46.119Z,10.00
2023-04-29T06:28:12.972Z,13.20
2023-04-29T06:30:39.870Z,9.40
2023-04-29T06:33:08.403Z,11.10
2023-04-29T06:35:39.649Z,9.20
2023-04-29T06:38:26.838Z,5.90
2023-04-29T06:41:16.913Z,7.40
2023-04-29T06:43:43.765Z,6.10
2023-04-29T06:46:29.811Z,7.30
2023-04-29T06:49:16.864Z,5.60
2023-04-29T06:51:43.858Z,7.50
2023-04-29T06:54:10.672Z,7.20
2023-04-29T06:56:37.564Z,5.10
2023-04-29T06:59:04.623Z,7.00
2023-04-29T07:01:31.512Z,5.30
2023-04-29T07:03:58.460Z,6.30
2023-04-29T07:06:25.579Z,7.30
2023-04-29T07:08:53.744Z,7.30
2023-04-29T07:11:24.868Z,5.70
2023-04-29T07:13:53.572Z,7.40
2023-04-29T07:16:22.349Z,6.70
2023-04-29T07:18:50.041Z,7.20
2023-04-29T07:21:16.810Z,7.00
2023-04-29T07:23:43.624Z,7.20
2023-04-29T07:26:15.893Z,7.20
2023-04-29T07:28:44.905Z,6.30
2023-04-29T07:31:15.092Z,5.50
2023-04-29T07:36:11.078Z,5.50
2023-04-29T07:38:37.913Z,7.20
2023-04-29T07:41:04.841Z,9.60
2023-04-29T07:43:31.781Z,6.50
2023-04-29T07:45:59.599Z,7.00
2023-04-29T07:48:26.451Z,6.60
2023-04-29T07:50:53.310Z,7.10
2023-04-29T07:53:20.122Z,8.60
2023-04-29T07:55:47.508Z,7.00
2023-04-29T07:58:14.614Z,6.30
2023-04-29T08:00:41.809Z,6.00
2023-04-29T08:03:08.717Z,6.30
2023-04-29T08:05:36.574Z,5.70
2023-04-29T08:08:03.958Z,7.40
2023-04-29T08:10:31.073Z,7.40
2023-04-29T08:12:58.142Z,7.20
2023-04-29T08:15:25.059Z,5.60
2023-04-29T08:17:52.945Z,5.70
2023-04-29T08:20:20.136Z,8.00
2023-04-29T08:22:47.302Z,7.10
2023-04-29T08:25:14.086Z,5.10
2023-04-29T08:27:40.935Z,7.80
2023-04-29T08:30:08.956Z,6.70
2023-04-29T08:32:35.954Z,6.10
2023-04-29T08:35:03.348Z,5.70
2023-04-29T08:37:30.412Z,7.60
2023-04-29T08:39:57.202Z,5.50
2023-04-29T08:42:36.469Z,5.40
2023-04-29T08:45:03.972Z,9.80
2023-04-29T08:47:31.851Z,7.50
2023-04-29T08:50:02.416Z,5.90
2023-04-29T08:52:29.596Z,6.40
2023-04-29T08:54:56.938Z,6.60
2023-04-29T08:57:25.893Z,6.30
2023-04-29T08:59:52.708Z,6.20
2023-04-29T09:02:21.594Z,10.10
2023-04-29T09:05:06.573Z,6.30
2023-04-29T09:07:33.591Z,9.40
2023-04-29T09:10:00.497Z,6.00
2023-04-29T09:12:27.492Z,6.60
2023-04-29T09:14:54.404Z,7.40
2023-04-29T09:17:44.528Z,5.20
2023-04-29T09:20:23.646Z,5.90
2023-04-29T09:23:01.703Z,10.20
2023-04-29T09:25:28.786Z,5.70
2023-04-29T09:27:55.738Z,5.40
2023-04-29T09:30:23.108Z,4.90
2023-04-29T09:33:09.378Z,4.90
2023-04-29T09:35:36.540Z,6.80
2023-04-29T09:38:11.789Z,5.60
2023-04-29T09:40:50.159Z,9.50
2023-04-29T09:43:24.138Z,6.90
2023-04-29T09:45:51.174Z,7.00
2023-04-29T09:48:18.693Z,4.00
2023-04-29T09:50:47.204Z,5.00
2023-04-29T09:53:14.148Z,5.20
2023-04-29T09:55:53.345Z,5.20
2023-04-29T09:58:31.659Z,5.10
2023-04-29T10:01:01.860Z,8.20
2023-04-29T10:03:33.858Z,5.10
2023-04-29T10:06:01.839Z,6.00
2023-04-29T10:08:32.634Z,6.70
2023-04-29T10:11:00.760Z,5.40
2023-04-29T10:13:28.576Z,5.40
2023-04-29T10:16:38.301Z,8.10
2023-04-29T10:19:07.026Z,7.80
2023-04-29T10:21:33.769Z,9.10
2023-04-29T10:24:02.330Z,5.50
2023-04-29T10:26:29.688Z,5.90
2023-04-29T10:28:56.935Z,4.50
2023-04-29T10:31:26.944Z,6.70
2023-04-29T10:36:31.692Z,7.80
2023-04-29T10:38:59.827Z,4.80
2023-04-29T10:41:28.755Z,7.90
2023-04-29T10:43:55.725Z,5.90
2023-04-29T10:46:24.086Z,5.00
2023-04-29T10:48:55.523Z,6.20
2023-04-29T10:51:33.346Z,4.80
2023-04-29T10:54:07.711Z,6.00
2023-04-29T10:56:38.147Z,4.60
2023-04-29T10:59:05.057Z,4.60
2023-04-29T11:01:52.614Z,8.70
2023-04-29T11:04:20.917Z,5.30
2023-04-29T11:06:51.701Z,4.10
2023-04-29T11:09:22.451Z,5.90
2023-04-29T11:11:58.351Z,4.90
2023-04-29T11:14:51.838Z,5.00
2023-04-29T11:17:23.548Z,5.30
2023-04-29T11:19:51.169Z,5.70
2023-04-29T11:22:18.400Z,5.40
2023-04-29T11:24:53.031Z,5.00
2023-04-29T11:27:20.896Z,7.50
2023-04-29T11:29:47.723Z,5.30
2023-04-29T11:32:15.710Z,5.40
2023-04-29T11:34:42.527Z,4.80
2023-04-29T11:37:09.419Z,5.50
2023-04-29T11:39:36.296Z,6.30
2023-04-29T11:42:06.849Z,4.40
2023-04-29T11:45:26.029Z,6.50
2023-04-29T11:47:54.878Z,5.70
2023-04-29T11:50:23.015Z,5.60
2023-04-29T11:52:50.199Z,5.50
2023-04-29T11:55:17.482Z,5.90
2023-04-29T11:57:44.531Z,5.50
2023-04-29T12:00:13.637Z,4.80
2023-04-29T12:02:47.127Z,6.20
2023-04-29T12:05:16.299Z,4.90
2023-04-29T12:07:43.593Z,4.70
2023-04-29T12:10:11.675Z,3.40
2023-04-29T12:12:43.822Z,5.40
2023-04-29T12:15:11.261Z,5.00
2023-04-29T12:17:39.181Z,5.30
2023-04-29T12:20:09.320Z,6.60
2023-04-29T12:22:36.217Z,4.60
2023-04-29T12:25:03.968Z,4.30
2023-04-29T12:27:30.888Z,5.50
2023-04-29T12:29:58.262Z,4.60
2023-04-29T12:32:25.930Z,3.90
2023-04-29T12:34:53.525Z,4.00
2023-04-29T12:37:23.712Z,5.10
2023-04-29T12:39:50.907Z,5.00
2023-04-29T12:42:17.850Z,4.90
2023-04-29T12:44:48.532Z,4.90
2023-04-29T12:47:16.318Z,5.10
2023-04-29T12:49:44.627Z,5.90
2023-04-29T12:52:11.672Z,5.10
2023-04-29T12:54:41.796Z,4.20
2023-04-29T12:57:10.351Z,4.90
2023-04-29T12:59:37.636Z,4.80
2023-04-29T13:02:05.039Z,3.50
2023-04-29T13:04:32.428Z,5.30
2023-04-29T13:07:04.486Z,4.50
2023-04-29T13:09:31.488Z,4.40
2023-04-29T13:11:59.284Z,3.70
2023-04-29T13:14:27.047Z,3.30
2023-04-29T13:16:54.268Z,4.00
2023-04-29T13:21:53.268Z,4.60
2023-04-29T13:24:21.153Z,5.80
2023-04-29T13:26:51.718Z,3.50
2023-04-29T13:29:19.511Z,4.30
2023-04-29T13:31:46.440Z,7.20
2023-04-29T13:34:13.688Z,4.90
2023-04-29T13:36:40.833Z,4.60
2023-04-29T13:39:07.746Z,4.40
2023-04-29T13:41:35.642Z,6.20
2023-04-29T13:44:04.362Z,4.70
2023-04-29T13:46:33.096Z,4.20
2023-04-29T13:52:01.436Z,5.80
2023-04-29T14:04:19.233Z,4.30
2023-04-29T14:06:46.283Z,6.50
2023-04-29T14:09:13.136Z,4.20
2023-04-29T14:11:40.197Z,5.00
2023-04-29T14:14:08.004Z,4.60
2023-04-29T14:16:34.785Z,5.70
2023-04-29T14:19:03.730Z,5.70
2023-04-29T14:21:33.226Z,4.20
2023-04-29T14:24:00.859Z,5.20
2023-04-29T14:26:28.932Z,4.80
2023-04-29T14:28:59.879Z,4.10
2023-04-29T14:31:31.227Z,9.80
2023-04-29T14:33:58.071Z,5.20
2023-04-29T14:36:25.403Z,5.10
2023-04-29T14:38:52.665Z,3.90
2023-04-29T14:41:21.610Z,3.10
2023-04-29T14:46:15.882Z,6.80
2023-04-29T14:48:42.811Z,5.30
2023-04-29T14:51:09.689Z,4.60
2023-04-29T14:53:36.473Z,3.70
2023-04-29T14:56:03.828Z,4.00
2023-04-29T14:58:30.837Z,4.00
2023-04-29T15:00:57.649Z,7.20
2023-04-29T15:03:24.671Z,4.40
2023-04-29T15:05:51.820Z,2.90
2023-04-29T15:08:19.263Z,3.10
2023-04-29T15:10:47.656Z,3.10
2023-04-29T15:13:14.946Z,3.10
2023-04-29T15:15:42.075Z,3.50
2023-04-29T15:18:09.278Z,3.80
2023-04-29T15:20:37.294Z,4.50
2023-04-29T15:23:06.679Z,3.30
2023-04-29T15:25:36.146Z,2.50
2023-04-29T15:28:04.995Z,3.30
2023-04-29T15:30:32.231Z,4.80
2023-04-29T15:32:59.121Z,3.60
2023-04-29T15:35:26.107Z,4.40
2023-04-29T15:37:53.080Z,3.00
2023-04-29T15:40:20.368Z,3.80
2023-04-29T15:42:47.198Z,2.90
2023-04-29T15:45:14.324Z,2.30
2023-04-29T15:50:10.615Z,3.70
2023-04-29T15:52:37.876Z,2.10
2023-04-29T15:55:06.720Z,3.50
2023-04-29T15:57:35.329Z,3.70
2023-04-29T16:00:02.186Z,3.50
2023-04-29T16:02:29.248Z,4.00
2023-04-29T16:04:56.233Z,3.20
2023-04-29T16:07:22.956Z,3.40
2023-04-29T16:09:49.676Z,2.50
2023-04-29T16:12:16.575Z,3.20
2023-04-29T16:14:43.805Z,3.30
2023-04-29T16:17:10.621Z,4.50
2023-04-29T16:19:37.573Z,4.00
2023-04-29T16:22:04.718Z,3.00
2023-04-29T16:24:31.554Z,4.30
2023-04-29T16:26:59.253Z,4.70
2023-04-29T16:29:26.612Z,3.40
2023-04-29T16:31:53.710Z,3.50
2023-04-29T16:34:20.796Z,7.90
2023-04-29T16:36:47.671Z,3.40
2023-04-29T16:39:14.447Z,3.00
2023-04-29T16:41:41.388Z,2.70
2023-04-29T16:44:08.702Z,2.90
2023-04-29T16:46:36.234Z,2.40
2023-04-29T16:49:03.543Z,3.70
2023-04-29T16:51:32.697Z,3.30
2023-04-29T16:54:00.271Z,3.10
2023-04-29T16:56:30.806Z,4.50
2023-04-29T16:58:57.749Z,3.90
2023-04-29T17:01:24.879Z,3.10
2023-04-29T17:03:51.679Z,5.00
2023-04-29T17:06:19.130Z,3.90
2023-04-29T17:08:47.149Z,2.40
2023-04-29T17:11:15.834Z,2.60
2023-04-29T17:13:45.026Z,3.60
2023-04-29T17:16:14.143Z,3.40
2023-04-29T17:18:41.772Z,4.80
2023-04-29T17:21:09.024Z,5.60
2023-04-29T17:23:36.130Z,6.20
2023-04-29T17:26:03.689Z,4.70
2023-04-29T17:28:31.076Z,5.60
2023-04-29T17:31:01.125Z,4.40
2023-04-29T17:33:34.129Z,4.50
2023-04-29T17:36:04.676Z,5.30
2023-04-29T17:38:35.054Z,7.20
2023-04-29T17:41:02.088Z,7.60
2023-04-29T17:43:32.419Z,6.70
2023-04-29T17:45:59.389Z,5.60
2023-04-29T17:48:26.310Z,4.90
2023-04-29T17:50:53.982Z,6.70
2023-04-29T17:53:20.843Z,8.80
2023-04-29T17:55:47.803Z,5.10
2023-04-29T17:58:14.661Z,6.40
2023-04-29T18:00:41.895Z,5.60
2023-04-29T18:03:09.226Z,6.60
2023-04-29T18:05:36.395Z,6.20
2023-04-29T18:08:06.118Z,7.70
2023-04-29T18:10:33.223Z,6.50
2023-04-29T18:13:00.322Z,5.40
2023-04-29T18:15:27.177Z,5.90
2023-04-29T18:17:54.525Z,3.50
2023-04-29T18:20:22.569Z,6.70
2023-04-29T18:22:50.659Z,4.30
2023-04-29T18:25:17.934Z,6.90
2023-04-29T18:27:45.186Z,6.20
2023-04-29T18:30:12.422Z,6.50
2023-04-29T18:32:39.302Z,6.90
2023-04-29T18:35:06.279Z,6.20
2023-04-29T18:37:33.108Z,5.80
2023-04-29T18:40:00.371Z,8.00
2023-04-29T18:42:27.115Z,7.00
2023-04-29T18:44:53.928Z,5.00
2023-04-29T18:47:20.713Z,6.50
2023-04-29T18:49:47.534Z,6.80
2023-04-29T18:52:14.307Z,6.50
2023-04-29T18:54:41.493Z,4.50
2023-04-29T18:57:08.981Z,8.30
2023-04-29T18:59:37.839Z,6.50
2023-04-29T19:02:06.252Z,5.60
2023-04-29T19:04:34.159Z,7.90
2023-04-29T19:07:02.079Z,5.90
2023-04-29T19:09:31.683Z,6.90
2023-04-29T19:12:05.883Z,4.80
2023-04-29T19:14:34.171Z,5.70
2023-04-29T19:17:01.353Z,6.00
2023-04-29T19:19:28.118Z,5.50
2023-04-29T19:21:54.921Z,4.80
2023-04-29T19:24:21.690Z,6.00
2023-04-29T19:26:48.464Z,5.10
2023-04-29T19:29:16.157Z,5.50
2023-04-29T19:31:43.959Z,5.50
2023-04-29T19:34:12.027Z,4.70
2023-04-29T19:36:38.944Z,4.90
2023-04-29T19:39:05.789Z,6.40
2023-04-29T19:41:34.719Z,6.90
2023-04-29T19:44:02.464Z,5.40
2023-04-29T19:46:29.383Z,8.10
2023-04-29T19:48:56.164Z,6.80
2023-04-29T19:51:22.917Z,6.00
2023-04-29T19:53:49.797Z,5.00
2023-04-29T19:56:16.596Z,5.30
2023-04-29T19:58:43.763Z,4.70
2023-04-29T20:01:10.883Z,7.90
2023-04-29T20:03:39.463Z,6.40
2023-04-29T20:06:07.428Z,5.60
2023-04-29T20:08:34.249Z,7.00
2023-04-29T20:11:02.643Z,7.40
2023-04-29T20:13:29.581Z,6.00
2023-04-29T20:15:56.725Z,8.60
2023-04-29T20:18:23.554Z,6.90
2023-04-29T20:20:50.700Z,4.90
2023-04-29T20:23:17.717Z,5.20
2023-04-29T20:25:44.583Z,5.00
2023-04-29T20:28:11.334Z,4.50
2023-04-29T20:30:38.090Z,5.70
2023-04-29T20:33:06.942Z,4.40
2023-04-29T20:35:34.763Z,7.80
2023-04-29T20:38:01.541Z,6.10
2023-04-29T20:40:28.550Z,6.60
2023-04-29T20:42:55.534Z,6.10
2023-04-29T20:45:23.374Z,4.70
2023-04-29T20:47:50.788Z,6.10
2023-04-29T20:50:17.666Z,5.80
2023-04-29T20:52:46.347Z,4.90
2023-04-29T20:55:14.968Z,8.10
2023-04-29T20:57:41.911Z,4.60
2023-04-29T21:00:09.798Z,5.00
2023-04-29T21:02:36.691Z,5.80
2023-04-29T21:05:03.612Z,6.50
2023-04-29T21:07:30.746Z,7.10
2023-04-29T21:09:57.647Z,8.10
2023-04-29T21:12:25.015Z,4.30
2023-04-29T21:14:51.821Z,4.40
2023-04-29T21:17:18.680Z,5.40
2023-04-29T21:19:45.521Z,4.50
2023-04-29T21:22:12.572Z,4.40
2023-04-29T21:24:39.307Z,10.30
2023-04-29T21:27:06.077Z,6.20
2023-04-29T21:29:34.767Z,4.70
2023-04-29T21:32:01.508Z,5.70
2023-04-29T21:34:28.282Z,4.80
2023-04-29T21:36:55.026Z,4.20
2023-04-29T21:39:22.274Z,4.90
2023-04-29T21:41:49.649Z,5.40
2023-04-29T21:44:16.506Z,7.70
2023-04-29T21:46:43.320Z,4.80
2023-04-29T21:49:10.173Z,3.30
2023-04-29T21:51:36.919Z,5.90
2023-04-29T21:54:08.441Z,5.00
2023-04-29T21:56:35.735Z,5.20
2023-04-29T21:59:02.567Z,4.90
2023-04-29T22:01:41.496Z,3.70
2023-04-29T22:04:08.545Z,5.90
2023-04-29T22:06:35.719Z,5.50
2023-04-29T22:09:02.983Z,4.60
2023-04-29T22:11:29.986Z,6.00
2023-04-29T22:13:56.803Z,5.90
2023-04-29T22:16:23.726Z,4.40
2023-04-29T22:18:51.329Z,5.10
2023-04-29T22:21:18.618Z,5.30
2023-04-29T22:23:45.745Z,4.60
2023-04-29T22:26:12.519Z,5.50
2023-04-29T22:28:39.400Z,3.90
2023-04-29T22:31:06.691Z,3.80
2023-04-29T22:33:35.133Z,3.40
2023-04-29T22:36:02.344Z,3.90
2023-04-29T22:38:29.623Z,3.90
2023-04-29T22:40:56.560Z,3.50
2023-04-29T22:43:23.348Z,3.20
2023-04-29T22:45:53.759Z,3.50
2023-04-29T22:48:20.888Z,4.40
2023-04-29T22:50:54.988Z,4.80
2023-04-29T22:53:22.659Z,3.60
2023-04-29T22:55:56.532Z,4.00
2023-04-29T22:58:25.417Z,6.00
2023-04-29T23:00:54.082Z,6.80
2023-04-29T23:03:21.049Z,5.00
2023-04-29T23:05:47.934Z,3.70
2023-04-29T23:08:14.742Z,4.30
2023-04-29T23:10:41.947Z,5.80
2023-04-29T23:13:08.850Z,4.30
2023-04-29T23:15:35.818Z,4.40
2023-04-29T23:18:02.808Z,5.20
2023-04-29T23:20:29.691Z,5.30
2023-04-29T23:22:56.574Z,5.40
2023-04-29T23:25:23.353Z,4.90
2023-04-29T23:27:50.216Z,4.20
2023-04-29T23:30:17.157Z,4.40
2023-04-29T23:32:44.152Z,5.10
2023-04-29T23:35:12.174Z,3.20
2023-04-29T23:37:39.343Z,5.20
2023-04-29T23:40:07.119Z,5.20
2023-04-29T23:42:34.413Z,4.50
2023-04-29T23:45:01.175Z,4.20
2023-04-29T23:47:28.066Z,3.30
2023-04-29T23:49:55.677Z,6.00
2023-04-29T23:52:24.141Z,4.40
2023-04-29T23:54:51.098Z,3.70
2023-04-29T23:57:18.107Z,4.00
